メキシコシティ の空港の天気 - METARとTAF

メキシコ・シティ国際空港 ( MMMX / MEX ) - メキシコ メキシコシティ
飛行場実況気象(Metar)
観測時間11/27 02:45 CST (11/27 08:45 UTC)
風向・風速静穏 0m/s
視程10km以上
天気現象
なし
気温15℃
湿度63%
気圧1009.4hPa
METARMMMX 270845Z 00000KT 10SM SKC 15/08 A3032 NOSIG RMK SLP094 54000 902 SC
過去の天気等 Google飛行場航空写真 Wunderground天気予報

過去48時間のMETAR

飛行場予報(TAF)
発表時間: 11/26 22:46 CST (11/27 04:46 UTC)
予報対象時間: 27日0時 CST ~ 28日6時 CST
風向・風速南東 3m/s
視程10km以上
なし
27日12時 CST から
風向・風速南西 7m/s
視程10km以上
全天の4割程度の雲 雲底高度 610m
全天の4割程度の雲 雲底高度 2440m
全天の8割程度の雲 雲底高度 7620m
28日0時 CST から
風向・風速南南東 3m/s
視程10km以上
全天の4割程度の雲 雲底高度 610m
TAF MMMX 270446Z 2706/2812 13005KT P6SM SKC TX26/2721Z TN12/2712Z
FM271800 22014KT P6SM SCT020 SCT080 BKN250
FM280600 16005KT P6SM SCT020